Αρχική σελίδα
METAR-TAF:

METAR-TAF

Αεροδρόμια :

Αμμάν, Ιορδανία

γεωγραφικό πλάτος: 31-59N, γεωγραφικό μήκος: 035-59E, υψόμετρο: 767 μ

Παρών καιρός

Η αναφορά έγινε 25 λεπτά πριν, στις 17:00 UTC
Άνεμος 10 kt από Δ/BΔ
Θερμοκρασία 24°C
Υγρασία 47%
Πίεση 1012 hPa
Ορατότητα: 5000 μ
καταχνιά

METAR: OJAM 181700Z 30010KT 5000 HZ NSC 24/12 Q1012 NOSIG

Χρόνος: 20:25 (17:25 UTC)

Πρόγνωση Καιρού

Η αναφορά έγινε 6 ώρες και 25 λεπτά πριν, στις 11:00 UTC
Η πρόγνωση ισχύει από τις 18 στις 12 UTC έως τις 19 στις 18 UTC
Άνεμος 6 kt από Δ
Ορατότητα: 6000 μ
Προσωρινά
από 18 στις 12 UTC έως τις 18 στις 18 UTC
Άνεμος 16 kt από Δ/BΔ
Πιθανότητα 30%
από 18 στις 12 UTC έως τις 18 στις 15 UTC
Ορατότητα: 5000 μ
φυσώντας σκόνη

TAF: OJAM 181100Z 1812/1918 28006KT 6000 NSC TEMPO 1812/1818 29016KT PROB30 1812/1815 5000 BLDU

Μετεωρολογικές αναφορές και προγνώσεις για περισσότερα από 4000 αεροδρόμια (δελτία METAR και TAF).

Οι διαθέσιμοι σταθμοί απεικονίζονται στο χάρτη με κίτρινες και κόκκινες κουκκίδες.

Μετακινήστε το ποντίκι πάνω από τις κουκκίδες για να δείτε το όνομα του σταθμού.

Στη συνέχεια, κάντε κλικ για να δείτε τις μετεωρολογικές αναφορές και τις προγνώσεις καιρού.

Για να αλλάξετε το χάρτη: κάντε κλικ στα πράσινα κουμπιά με τον μαύρο σταυρό για να ζουμάρετε, στο πράσινο κουμπί με την παύλα για να αφαιρέσετε το ζουμ ή στα πράσινα βέλη για να αντιπαραβάλλετε χάρτες.


METAR-TAF: